createdAt,value
2023-05-05T00:00:40.121Z,4.00
2023-05-05T00:03:06.553Z,2.00
2023-05-05T00:05:32.940Z,4.00
2023-05-05T00:07:59.317Z,3.33
2023-05-05T00:10:25.639Z,4.00
2023-05-05T00:15:36.134Z,3.33
2023-05-05T00:18:02.488Z,3.00
2023-05-05T00:20:28.852Z,4.00
2023-05-05T00:22:55.185Z,4.00
2023-05-05T00:25:21.541Z,3.00
2023-05-05T00:30:31.801Z,2.33
2023-05-05T00:32:58.308Z,2.67
2023-05-05T00:35:24.722Z,4.00
2023-05-05T00:37:51.069Z,4.00
2023-05-05T00:40:17.406Z,3.67
2023-05-05T00:45:27.474Z,3.33
2023-05-05T00:47:53.834Z,3.33
2023-05-05T00:50:20.208Z,3.00
2023-05-05T00:52:46.721Z,2.00
2023-05-05T00:55:13.108Z,3.00
2023-05-05T01:00:23.351Z,3.00
2023-05-05T01:02:49.778Z,4.00
2023-05-05T01:05:16.168Z,3.00
2023-05-05T01:07:42.488Z,2.00
2023-05-05T01:10:19.615Z,4.00
2023-05-05T01:15:30.948Z,4.00
2023-05-05T01:17:57.293Z,3.33
2023-05-05T01:20:23.695Z,3.33
2023-05-05T01:22:50.049Z,4.00
2023-05-05T01:25:16.377Z,3.67
2023-05-05T01:30:26.690Z,4.00
2023-05-05T01:32:53.087Z,3.00
2023-05-05T01:35:20.534Z,4.00
2023-05-05T01:37:46.870Z,4.00
2023-05-05T01:40:14.088Z,4.50
2023-05-05T01:42:40.436Z,4.00
2023-05-05T01:45:06.870Z,4.00
2023-05-05T01:47:33.259Z,4.33
2023-05-05T01:49:59.612Z,4.00
2023-05-05T01:52:25.945Z,4.00
2023-05-05T01:54:52.284Z,4.00
2023-05-05T01:57:18.637Z,3.33
2023-05-05T01:59:45.004Z,4.67
2023-05-05T02:02:12.281Z,4.50
2023-05-05T02:04:38.635Z,5.00
2023-05-05T02:07:05.001Z,4.33
2023-05-05T02:09:31.442Z,4.00
2023-05-05T02:11:57.817Z,5.00
2023-05-05T02:14:24.179Z,5.00
2023-05-05T02:16:51.377Z,4.50
2023-05-05T02:19:18.579Z,4.50
2023-05-05T02:21:44.925Z,5.67
2023-05-05T02:24:11.275Z,5.00
2023-05-05T02:26:37.633Z,4.00
2023-05-05T02:29:03.996Z,5.00
2023-05-05T02:31:30.337Z,0.00
2023-05-05T02:33:56.734Z,4.67
2023-05-05T02:36:23.260Z,5.00
2023-05-05T02:38:49.588Z,4.67
2023-05-05T02:41:15.949Z,4.00
2023-05-05T02:43:42.299Z,3.33
2023-05-05T02:48:52.440Z,5.00
2023-05-05T02:51:18.802Z,5.00
2023-05-05T02:53:45.105Z,5.00
2023-05-05T02:56:12.319Z,4.00
2023-05-05T02:58:38.639Z,5.00
2023-05-05T03:03:48.882Z,4.67
2023-05-05T03:06:15.345Z,5.00
2023-05-05T03:08:41.700Z,4.00
2023-05-05T03:11:08.026Z,5.00
2023-05-05T03:13:34.360Z,3.00
2023-05-05T03:18:44.340Z,4.00
2023-05-05T03:21:10.660Z,5.33
2023-05-05T03:23:36.996Z,4.00
2023-05-05T03:26:03.376Z,5.00
2023-05-05T03:28:29.767Z,3.00
2023-05-05T03:33:40.039Z,4.00
2023-05-05T03:36:06.366Z,4.33
2023-05-05T03:38:32.751Z,3.00
2023-05-05T03:40:59.109Z,3.67
2023-05-05T03:43:25.440Z,3.67
2023-05-05T03:48:45.753Z,4.00
2023-05-05T03:51:12.152Z,3.00
2023-05-05T03:53:38.541Z,2.00
2023-05-05T03:56:07.640Z,0.00
2023-05-05T03:58:33.993Z,2.67
2023-05-05T04:03:44.519Z,3.00
2023-05-05T04:06:10.932Z,3.00
2023-05-05T04:08:37.275Z,2.00
2023-05-05T04:11:03.610Z,3.00
2023-05-05T04:13:29.956Z,3.67
2023-05-05T04:18:40.274Z,5.67
2023-05-05T04:21:06.691Z,7.00
2023-05-05T04:23:33.114Z,11.00
2023-05-05T04:26:01.387Z,9.60
2023-05-05T04:28:27.860Z,11.00
2023-05-05T04:33:40.378Z,20.50
2023-05-05T04:36:06.817Z,11.00
2023-05-05T04:38:33.279Z,11.00
2023-05-05T04:41:00.530Z,11.33
2023-05-05T04:43:29.728Z,10.00
2023-05-05T04:45:56.211Z,18.50
2023-05-05T04:48:22.747Z,21.00
2023-05-05T04:50:49.198Z,14.00
2023-05-05T04:53:16.591Z,18.00
2023-05-05T04:55:43.068Z,22.00
2023-05-05T04:58:11.574Z,17.33
2023-05-05T05:00:38.946Z,15.67
2023-05-05T05:03:05.590Z,14.00
2023-05-05T05:05:32.446Z,13.50
2023-05-05T05:07:58.890Z,14.00
2023-05-05T05:10:25.591Z,13.00
2023-05-05T05:12:53.911Z,8.00
2023-05-05T05:15:20.606Z,11.00
2023-05-05T05:17:47.373Z,17.50
2023-05-05T05:20:15.056Z,21.50
2023-05-05T05:22:42.735Z,16.00
2023-05-05T05:25:09.188Z,13.00
2023-05-05T05:27:35.620Z,12.00
2023-05-05T05:30:02.884Z,11.67
2023-05-05T05:32:30.169Z,11.67
2023-05-05T05:34:56.595Z,10.50
2023-05-05T05:37:23.031Z,10.50
2023-05-05T05:39:50.257Z,9.33
2023-05-05T05:42:19.426Z,7.83
2023-05-05T05:44:45.893Z,7.00
2023-05-05T05:47:12.364Z,19.00
2023-05-05T05:49:38.846Z,26.00
2023-05-05T05:52:05.361Z,21.00
2023-05-05T05:54:31.912Z,19.50
2023-05-05T05:56:58.401Z,16.00
2023-05-05T05:59:24.854Z,14.50
2023-05-05T06:01:52.215Z,13.00
2023-05-05T06:07:03.573Z,11.00
2023-05-05T06:09:30.012Z,8.00
2023-05-05T06:11:57.274Z,10.33
2023-05-05T06:14:23.767Z,8.00
2023-05-05T06:16:50.190Z,8.00
2023-05-05T06:22:00.932Z,7.00
2023-05-05T06:24:27.352Z,7.50
2023-05-05T06:26:55.656Z,6.80
2023-05-05T06:29:22.895Z,7.00
2023-05-05T06:31:49.442Z,7.00
2023-05-05T06:36:59.613Z,6.00
2023-05-05T06:39:25.984Z,5.00
2023-05-05T06:41:52.316Z,5.33
2023-05-05T06:44:18.686Z,3.33
2023-05-05T06:46:45.018Z,5.00
2023-05-05T06:51:56.281Z,5.00
2023-05-05T06:54:22.685Z,5.00
2023-05-05T06:56:49.028Z,4.67
2023-05-05T06:59:15.404Z,4.33
2023-05-05T07:01:41.782Z,5.00
2023-05-05T07:06:51.850Z,5.00
2023-05-05T07:09:18.211Z,4.33
2023-05-05T07:11:44.580Z,5.00
2023-05-05T07:14:10.964Z,5.67
2023-05-05T07:16:37.419Z,5.00
2023-05-05T07:21:47.848Z,5.00
2023-05-05T07:24:14.207Z,5.33
2023-05-05T07:26:40.670Z,14.00
2023-05-05T07:29:07.147Z,17.00
2023-05-05T07:31:34.458Z,12.00
2023-05-05T07:36:47.709Z,10.00
2023-05-05T07:39:14.194Z,14.00
2023-05-05T07:41:40.662Z,14.50
2023-05-05T07:44:07.122Z,12.00
2023-05-05T07:46:34.459Z,9.67
2023-05-05T07:51:44.805Z,8.00
2023-05-05T07:54:11.251Z,8.00
2023-05-05T07:56:37.677Z,6.00
2023-05-05T07:59:04.147Z,14.50
2023-05-05T08:01:30.549Z,9.00
2023-05-05T08:03:57.114Z,8.00
2023-05-05T08:06:24.478Z,7.25
2023-05-05T08:08:53.622Z,7.83
2023-05-05T08:11:19.992Z,6.00
2023-05-05T08:13:46.393Z,6.00
2023-05-05T08:16:13.663Z,6.50
2023-05-05T08:18:40.909Z,5.75
2023-05-05T08:21:07.310Z,5.00
2023-05-05T08:23:33.671Z,5.33
2023-05-05T08:25:59.996Z,6.00
2023-05-05T08:28:26.364Z,5.00
2023-05-05T08:30:53.790Z,23.33
2023-05-05T08:33:20.308Z,19.00
2023-05-05T08:35:47.592Z,11.67
2023-05-05T08:38:14.102Z,12.00
2023-05-05T08:40:40.559Z,7.00
2023-05-05T08:43:07.003Z,6.00
2023-05-05T08:45:33.396Z,6.00
2023-05-05T08:47:59.783Z,6.00
2023-05-05T08:50:26.156Z,4.33
2023-05-05T08:52:52.560Z,5.00
2023-05-05T08:55:19.027Z,5.67
2023-05-05T08:57:45.381Z,6.00
2023-05-05T09:00:11.737Z,4.67
2023-05-05T09:02:38.123Z,4.67
2023-05-05T09:05:04.589Z,5.00
2023-05-05T09:10:24.735Z,5.33
2023-05-05T09:12:51.442Z,5.67
2023-05-05T09:15:18.031Z,4.00
2023-05-05T09:17:44.472Z,5.67
2023-05-05T09:20:10.910Z,5.00
2023-05-05T09:25:21.372Z,4.00
2023-05-05T09:27:47.707Z,3.00
2023-05-05T09:30:14.070Z,4.00
2023-05-05T09:32:40.408Z,4.00
2023-05-05T09:35:06.955Z,4.33
2023-05-05T09:40:18.043Z,5.33
2023-05-05T09:42:44.409Z,6.00
2023-05-05T09:45:10.826Z,6.00
2023-05-05T09:47:37.121Z,5.00
2023-05-05T09:50:03.518Z,6.00
2023-05-05T09:55:14.034Z,5.33
2023-05-05T09:57:40.384Z,4.00
2023-05-05T10:00:07.006Z,4.00
2023-05-05T10:02:33.667Z,16.00
2023-05-05T10:05:02.530Z,9.00
2023-05-05T10:10:13.823Z,6.75
2023-05-05T10:12:40.256Z,6.00
2023-05-05T10:15:07.576Z,10.00
2023-05-05T10:17:33.976Z,5.00
2023-05-05T10:20:00.633Z,5.67
2023-05-05T10:25:10.898Z,3.33
2023-05-05T10:27:37.266Z,4.00
2023-05-05T10:30:03.647Z,4.00
2023-05-05T10:34:59.228Z,1.33
2023-05-05T10:40:09.545Z,4.00
2023-05-05T10:42:36.127Z,5.00
2023-05-05T10:45:02.556Z,6.00
2023-05-05T10:47:28.953Z,5.00
2023-05-05T10:49:55.357Z,4.00
2023-05-05T10:55:05.507Z,3.00
2023-05-05T10:57:31.858Z,3.00
2023-05-05T10:59:58.198Z,3.33
2023-05-05T11:02:24.667Z,3.33
2023-05-05T11:04:51.101Z,3.67
2023-05-05T11:10:01.695Z,3.00
2023-05-05T11:12:28.227Z,4.00
2023-05-05T11:14:54.564Z,2.00
2023-05-05T11:17:23.695Z,2.17
2023-05-05T11:19:50.079Z,3.00
2023-05-05T11:22:16.427Z,4.00
2023-05-05T11:24:42.761Z,1.33
2023-05-05T11:27:09.184Z,10.50
2023-05-05T11:29:35.643Z,17.00
2023-05-05T11:32:03.953Z,11.60
2023-05-05T11:34:31.167Z,7.00
2023-05-05T11:36:57.508Z,4.67
2023-05-05T11:39:23.878Z,4.00
2023-05-05T11:41:50.252Z,3.00
2023-05-05T11:44:16.713Z,4.00
2023-05-05T11:46:43.176Z,3.00
2023-05-05T11:49:09.736Z,4.00
2023-05-05T11:51:36.091Z,5.67
2023-05-05T11:54:02.401Z,6.00
2023-05-05T11:56:29.657Z,7.25
2023-05-05T11:58:56.106Z,15.00
2023-05-05T12:01:22.590Z,19.50
2023-05-05T12:03:49.234Z,12.00
2023-05-05T12:06:15.836Z,12.00
2023-05-05T12:08:42.324Z,12.00
2023-05-05T12:11:10.648Z,9.60
2023-05-05T12:13:37.951Z,10.00
2023-05-05T12:16:05.368Z,12.67
2023-05-05T12:18:32.648Z,11.67
2023-05-05T12:20:59.889Z,10.67
2023-05-05T12:23:26.403Z,11.00
2023-05-05T12:28:38.900Z,8.00
2023-05-05T12:31:05.399Z,7.00
2023-05-05T12:33:31.846Z,6.67
2023-05-05T12:35:59.082Z,6.25
2023-05-05T12:38:25.449Z,6.67
2023-05-05T12:43:35.642Z,6.00
2023-05-05T12:46:02.137Z,5.67
2023-05-05T12:48:28.572Z,7.00
2023-05-05T12:50:54.936Z,5.67
2023-05-05T12:53:21.305Z,6.67
2023-05-05T12:58:32.419Z,5.00
2023-05-05T13:00:58.862Z,6.67
2023-05-05T13:03:25.418Z,6.67
2023-05-05T13:05:51.843Z,6.00
2023-05-05T13:08:18.190Z,5.33
2023-05-05T13:13:38.784Z,5.67
2023-05-05T13:16:06.078Z,6.50
2023-05-05T13:18:32.529Z,7.00
2023-05-05T13:20:58.899Z,6.00
2023-05-05T13:23:25.907Z,5.67
2023-05-05T13:28:36.087Z,5.00
2023-05-05T13:31:02.494Z,7.00
2023-05-05T13:33:28.888Z,5.33
2023-05-05T13:35:55.297Z,7.00
2023-05-05T13:38:21.692Z,5.33
2023-05-05T13:43:41.748Z,6.33
2023-05-05T13:46:19.181Z,7.00
2023-05-05T13:48:46.650Z,3.67
2023-05-05T13:51:13.094Z,6.33
2023-05-05T13:53:39.476Z,5.00
2023-05-05T13:58:49.964Z,5.00
2023-05-05T14:01:16.325Z,5.67
2023-05-05T14:03:43.670Z,8.50
2023-05-05T14:06:12.020Z,10.20
2023-05-05T14:08:38.577Z,12.00
2023-05-05T14:13:59.184Z,9.00
2023-05-05T14:16:26.505Z,9.50
2023-05-05T14:18:54.854Z,8.40
2023-05-05T14:21:22.102Z,6.00
2023-05-05T14:23:48.501Z,7.00
2023-05-05T14:28:58.615Z,6.00
2023-05-05T14:31:25.059Z,6.00
2023-05-05T14:33:51.394Z,5.33
2023-05-05T14:36:17.805Z,5.00
2023-05-05T14:38:44.193Z,6.00
2023-05-05T14:43:54.520Z,5.00
2023-05-05T14:46:21.809Z,5.75
2023-05-05T14:48:48.168Z,4.00
2023-05-05T14:51:14.556Z,5.00
2023-05-05T14:53:40.883Z,4.00
2023-05-05T14:56:07.285Z,3.67
2023-05-05T14:58:33.638Z,4.33
2023-05-05T15:00:59.966Z,5.33
2023-05-05T15:03:26.459Z,4.00
2023-05-05T15:05:52.945Z,4.33
2023-05-05T15:08:19.339Z,5.00
2023-05-05T15:10:45.698Z,5.00
2023-05-05T15:13:12.136Z,5.00
2023-05-05T15:15:38.534Z,4.67
2023-05-05T15:18:05.021Z,4.00
2023-05-05T15:20:31.401Z,4.33
2023-05-05T15:22:57.724Z,4.00
2023-05-05T15:25:24.138Z,4.00
2023-05-05T15:27:50.484Z,4.00
2023-05-05T15:30:16.847Z,4.00
2023-05-05T15:32:43.232Z,5.00
2023-05-05T15:35:10.473Z,4.33
2023-05-05T15:37:37.079Z,4.00
2023-05-05T15:40:03.494Z,3.33
2023-05-05T15:42:29.878Z,4.00
2023-05-05T15:44:56.234Z,4.33
2023-05-05T15:47:22.744Z,3.33
2023-05-05T15:49:49.102Z,3.00
2023-05-05T15:52:15.459Z,2.33
2023-05-05T15:54:41.810Z,3.00
2023-05-05T15:57:08.189Z,4.00
2023-05-05T16:02:18.421Z,3.33
2023-05-05T16:04:44.861Z,4.00
2023-05-05T16:07:11.231Z,3.33
2023-05-05T16:09:37.623Z,4.67
2023-05-05T16:12:04.016Z,4.33
2023-05-05T16:17:14.290Z,3.33
2023-05-05T16:19:40.662Z,4.00
2023-05-05T16:22:07.032Z,4.33
2023-05-05T16:24:33.474Z,11.50
2023-05-05T16:26:59.945Z,9.00
2023-05-05T16:32:11.370Z,5.75
2023-05-05T16:34:37.741Z,6.00
2023-05-05T16:37:04.111Z,5.00
2023-05-05T16:39:31.367Z,9.75
2023-05-05T16:41:57.815Z,9.00
2023-05-05T16:47:10.687Z,8.75
2023-05-05T16:49:39.869Z,7.33
2023-05-05T16:52:06.384Z,9.50
2023-05-05T16:54:32.788Z,7.00
2023-05-05T16:56:59.188Z,5.33
2023-05-05T17:02:10.435Z,11.00
2023-05-05T17:04:36.859Z,8.00
2023-05-05T17:07:04.157Z,8.00
2023-05-05T17:09:31.450Z,8.75
2023-05-05T17:11:57.865Z,8.00
2023-05-05T17:17:09.008Z,16.00
2023-05-05T17:19:38.259Z,9.33
2023-05-05T17:22:04.867Z,9.00
2023-05-05T17:24:32.231Z,9.75
2023-05-05T17:27:00.577Z,8.80
2023-05-05T17:32:13.554Z,6.33
2023-05-05T17:34:42.690Z,5.00
2023-05-05T17:37:09.940Z,5.75
2023-05-05T17:39:36.346Z,3.33
2023-05-05T17:42:02.719Z,7.00
2023-05-05T17:47:13.158Z,5.33
2023-05-05T17:49:39.534Z,6.00
2023-05-05T17:52:05.927Z,4.33
2023-05-05T17:54:32.336Z,4.67
2023-05-05T17:56:58.679Z,5.33
2023-05-05T18:02:09.994Z,3.50
2023-05-05T18:04:36.380Z,4.33
2023-05-05T18:07:02.779Z,3.33
2023-05-05T18:09:29.465Z,4.00
2023-05-05T18:11:55.819Z,4.33
2023-05-05T18:14:22.193Z,4.67
2023-05-05T18:16:48.615Z,3.33
2023-05-05T18:19:15.016Z,3.33
2023-05-05T18:21:41.370Z,4.33
2023-05-05T18:24:19.190Z,3.33
2023-05-05T18:26:46.911Z,4.67
2023-05-05T18:29:13.263Z,3.33
2023-05-05T18:31:39.664Z,3.67
2023-05-05T18:34:06.076Z,2.67
2023-05-05T18:36:32.613Z,11.50
2023-05-05T18:38:59.907Z,11.33
2023-05-05T18:41:26.315Z,8.00
2023-05-05T18:43:52.683Z,5.33
2023-05-05T18:46:19.122Z,4.33
2023-05-05T18:48:45.700Z,6.33
2023-05-05T18:51:13.118Z,18.00
2023-05-05T18:53:42.327Z,7.83
2023-05-05T18:56:11.530Z,7.50
2023-05-05T18:58:37.928Z,5.33
2023-05-05T19:01:04.359Z,4.33
2023-05-05T19:03:30.755Z,5.00
2023-05-05T19:05:57.137Z,4.00
2023-05-05T19:08:23.502Z,5.00
2023-05-05T19:10:49.856Z,4.33
2023-05-05T19:13:17.275Z,8.00
2023-05-05T19:15:43.887Z,16.50
2023-05-05T19:18:11.379Z,17.00
2023-05-05T19:20:38.795Z,12.00
2023-05-05T19:23:05.366Z,11.00
2023-05-05T19:25:32.667Z,10.00
2023-05-05T19:27:59.227Z,10.00
2023-05-05T19:30:25.733Z,18.00
2023-05-05T19:35:36.797Z,13.33
2023-05-05T19:38:05.911Z,11.83
2023-05-05T19:40:34.245Z,10.20
2023-05-05T19:43:02.544Z,9.00
2023-05-05T19:45:29.020Z,9.00
2023-05-05T19:50:39.292Z,7.00
2023-05-05T19:53:05.686Z,6.67
2023-05-05T19:55:32.152Z,7.00
2023-05-05T19:57:58.588Z,7.00
2023-05-05T20:00:25.999Z,8.50
2023-05-05T20:05:36.376Z,7.00
2023-05-05T20:08:02.805Z,9.00
2023-05-05T20:10:31.999Z,7.67
2023-05-05T20:12:58.465Z,8.00
2023-05-05T20:15:25.769Z,6.75
2023-05-05T20:20:35.895Z,6.50
2023-05-05T20:23:02.331Z,8.00
2023-05-05T20:25:28.766Z,7.67
2023-05-05T20:27:57.083Z,8.40
2023-05-05T20:30:23.668Z,19.00
2023-05-05T20:35:34.528Z,17.00
2023-05-05T20:38:01.941Z,15.00
2023-05-05T20:40:28.568Z,10.00
2023-05-05T20:42:55.069Z,11.00
2023-05-05T20:45:24.250Z,8.67
2023-05-05T20:50:38.075Z,10.00
2023-05-05T20:53:04.493Z,7.00
2023-05-05T20:55:33.771Z,9.17
2023-05-05T20:58:00.466Z,7.00
2023-05-05T21:00:26.904Z,8.00
2023-05-05T21:05:37.317Z,6.33
2023-05-05T21:08:03.747Z,7.67
2023-05-05T21:10:30.134Z,7.00
2023-05-05T21:12:56.558Z,6.33
2023-05-05T21:15:22.963Z,6.00
2023-05-05T21:20:34.036Z,5.00
2023-05-05T21:23:00.491Z,5.67
2023-05-05T21:25:26.853Z,3.67
2023-05-05T21:27:53.229Z,4.33
2023-05-05T21:30:19.601Z,4.00
2023-05-05T21:32:46.107Z,5.00
2023-05-05T21:35:12.568Z,4.67
2023-05-05T21:37:40.063Z,6.00
2023-05-05T21:40:06.647Z,5.00
2023-05-05T21:42:33.004Z,5.00
2023-05-05T21:44:59.430Z,4.33
2023-05-05T21:47:25.845Z,4.00
2023-05-05T21:49:52.341Z,9.00
2023-05-05T21:52:18.801Z,19.00
2023-05-05T21:54:46.257Z,15.67
2023-05-05T21:57:12.736Z,22.00
2023-05-05T21:59:39.203Z,22.00
2023-05-05T22:02:06.624Z,14.67
2023-05-05T22:04:34.019Z,13.00
2023-05-05T22:07:00.483Z,12.00
2023-05-05T22:09:26.932Z,10.50
2023-05-05T22:11:53.456Z,9.50
2023-05-05T22:14:22.694Z,8.33
2023-05-05T22:16:49.219Z,9.67
2023-05-05T22:19:16.945Z,8.50
2023-05-05T22:21:43.394Z,9.00
2023-05-05T22:24:10.677Z,7.75
2023-05-05T22:26:39.786Z,6.17
2023-05-05T22:29:06.185Z,6.00
2023-05-05T22:31:32.664Z,5.00
2023-05-05T22:33:59.052Z,6.00
2023-05-05T22:39:09.484Z,6.00
2023-05-05T22:41:35.842Z,5.00
2023-05-05T22:44:02.192Z,4.33
2023-05-05T22:46:28.564Z,5.33
2023-05-05T22:48:54.964Z,5.00
2023-05-05T22:54:05.190Z,4.67
2023-05-05T22:56:31.769Z,6.00
2023-05-05T22:58:58.131Z,5.00
2023-05-05T23:01:24.746Z,5.00
2023-05-05T23:03:51.187Z,6.00
2023-05-05T23:09:01.360Z,5.00
2023-05-05T23:11:27.699Z,4.00
2023-05-05T23:13:54.049Z,5.00
2023-05-05T23:16:20.426Z,5.00
2023-05-05T23:18:46.935Z,5.00
2023-05-05T23:24:07.103Z,5.00
2023-05-05T23:26:33.449Z,6.00
2023-05-05T23:28:59.842Z,7.67
2023-05-05T23:31:26.297Z,6.00
2023-05-05T23:33:52.649Z,4.00
2023-05-05T23:39:02.950Z,6.00
2023-05-05T23:41:29.279Z,6.00
2023-05-05T23:43:55.666Z,6.00
2023-05-05T23:46:22.092Z,6.00
2023-05-05T23:48:48.505Z,6.00
2023-05-05T23:53:58.783Z,5.33
2023-05-05T23:56:25.137Z,5.33
2023-05-05T23:58:51.494Z,5.00
